Latest Weather Observations for Centre Island

IDD60801

Issued at 9:35 pm CST Wednesday 26 November 2014 (issued every 30 minutes, with the page automatically refreshed every 10 minutes)

About weather observations | Map of weather stations | Latest weather observations for NT | Other Formats
Station Details ID: 014703 Name: CENTRE ISLAND Lat: -15.74 Lon: 136.82 Height: 12.2 m
Data from the previous 72 hours. | See also: Recent months at Centre Island
Date/Time
CST
Temp
°C
App
Temp
°C
Dew
Point
Rel
Hum
%
Delta-T
°C
Wind Press
QNH
hPa
Press
MSL
hPa
Rain
since 9 am
mm
Dir
 
Spd
km/h
Gust
km/h
Spd
kts
Gust
kts
26/09:30pm 28.8 32.6 24.1 76 3.3 N 11 13 6 7 1008.4 1008.3 0.0
26/09:00pm 28.6 32.9 23.7 75 3.4 NNW 7 11 4 6 1008.2 1008.1 0.0
26/08:30pm 28.9 32.8 23.6 73 3.7 N 9 13 5 7 1007.9 1007.8 0.0
26/08:00pm 29.2 32.5 23.2 70 4.1 N 11 15 6 8 1007.7 1007.6 0.0
26/07:30pm 29.4 32.3 22.4 66 4.8 N 11 17 6 9 1007.3 1007.2 0.0
26/07:00pm 29.7 32.1 22.2 64 5.1 N 13 20 7 11 1006.9 1006.8 0.0
26/06:30pm 30.2 31.7 21.3 59 6.0 N 15 20 8 11 1006.6 1006.5 0.0
26/06:00pm 30.5 31.3 21.8 59 5.9 NNE 20 28 11 15 1006.5 1006.4 0.0
26/05:30pm 30.7 32.4 22.3 61 5.7 NNE 17 22 9 12 1006.4 1006.3 0.0
26/05:00pm 31.2 33.2 22.2 58 6.1 NE 15 20 8 11 1006.5 1006.4 0.0
26/04:30pm 30.8 32.9 21.0 56 6.6 NNE 11 15 6 8 1006.5 1006.4 0.0
26/04:00pm 30.8 32.5 21.0 56 6.6 NE 13 17 7 9 1006.6 1006.5 0.0
26/03:30pm 30.9 32.2 20.8 55 6.7 NNE 15 17 8 9 1006.6 1006.5 0.0
26/03:00pm 31.3 34.0 22.9 61 5.8 N 13 17 7 9 1006.9 1006.8 0.0
26/02:30pm 31.1 32.4 21.6 57 6.4 NNE 17 22 9 12 1006.9 1006.8 0.0
26/02:00pm 32.4 34.2 21.9 54 7.1 NNE 15 20 8 11 1007.2 1007.1 0.0
26/01:30pm 31.3 33.6 23.4 63 5.5 NNE 17 20 9 11 1007.8 1007.7 0.0
26/01:00pm 31.1 31.9 23.2 63 5.4 NE 24 32 13 17 1008.3 1008.2 0.0
26/12:30pm 30.1 33.5 24.0 70 4.2 ENE 13 19 7 10 1008.4 1008.3 0.0
26/12:06pm 30.5 29.1 22.9 64 5.2 ENE 35 44 19 24 1008.8 1008.7 0.0
26/12:00pm 32.3 34.9 23.3 59 6.2 NE 15 20 8 11 1009.0 1008.9 0.0
26/11:30am 33.2 36.5 22.6 53 7.3 NNE 9 13 5 7 1009.0 1008.9 0.0
26/11:00am 31.8 35.0 21.6 54 6.9 SE 7 11 4 6 1009.1 1009.0 0.0
26/10:30am 32.1 35.2 22.2 56 6.8 ESE 9 13 5 7 1009.4 1009.3 0.0
26/10:00am 31.6 33.4 21.2 54 7.0 ESE 13 19 7 10 1009.8 1009.7 0.0
26/09:30am 32.3 33.2 20.9 51 7.6 SE 17 20 9 11 1009.8 1009.7 0.0
26/09:00am 31.4 33.4 21.6 56 6.6 SSE 13 17 7 9 1009.7 1009.6 0.2
26/08:30am 30.8 32.5 21.6 58 6.2 SE 15 19 8 10 1009.7 1009.6 0.2
26/08:00am 30.3 32.7 22.2 62 5.5 SE 13 17 7 9 1009.6 1009.5 0.2
26/07:30am 30.1 33.6 22.8 65 5.0 SE 9 13 5 7 1009.1 1009.0 0.2
26/07:00am 29.4 33.3 23.6 71 4.0 S 9 11 5 6 1008.6 1008.5 0.2
26/06:30am 29.1 32.6 24.2 75 3.4 SSW 13 17 7 9 1008.3 1008.2 0.2
26/06:00am 28.4 31.4 24.0 77 3.0 SSW 15 20 8 11 1007.9 1007.8 0.2
26/05:30am 28.2 30.8 24.0 78 2.9 S 17 20 9 11 1007.5 1007.4 0.2
26/05:00am 28.1 30.9 24.3 80 2.6 S 17 20 9 11 1007.1 1007.0 0.2
26/04:30am 28.1 31.0 24.5 81 2.5 S 17 22 9 12 1006.8 1006.7 0.2
26/04:00am 28.1 31.0 24.5 81 2.5 S 17 20 9 11 1006.7 1006.6 0.2
26/03:30am 28.2 31.7 24.8 82 2.4 S 15 19 8 10 1006.6 1006.5 0.2
26/03:00am 28.3 32.2 24.9 82 2.4 SSW 13 17 7 9 1006.6 1006.5 0.2
26/02:30am 28.1 31.9 24.1 79 2.8 SW 11 13 6 7 1006.6 1006.5 0.2
26/02:00am 28.0 33.0 23.8 78 2.9 S 4 7 2 4 1007.0 1006.9 0.2
26/01:30am 27.8 32.4 23.8 79 2.8 WSW 6 7 3 4 1007.4 1007.3 0.2
26/01:00am 28.1 32.4 24.3 80 2.6 W 9 11 5 6 1007.7 1007.6 0.2
26/12:30am 28.1 32.4 24.3 80 2.6 W 9 11 5 6 1008.0 1007.9 0.2
26/12:00am 27.7 32.0 23.7 79 2.8 NNW 7 9 4 5 1008.1 1008.0 0.2
 
Date/Time
CST
Temp
°C
App
Temp
°C
Dew
Point
Rel
Hum
%
Delta-T
°C
Wind Press
QNH
hPa
Press
MSL
hPa
Rain
since 9 am
mm
Dir
 
Spd
km/h
Gust
km/h
Spd
kts
Gust
kts
25/11:30pm 27.9 31.7 23.5 77 3.0 NNW 9 13 5 7 1008.4 1008.3 0.2
25/11:00pm 28.7 32.8 24.0 76 3.3 N 9 13 5 7 1008.6 1008.5 0.2
25/10:30pm 28.7 32.0 23.8 75 3.4 N 13 17 7 9 1008.6 1008.5 0.2
25/10:00pm 28.9 31.5 24.0 75 3.4 NNE 17 20 9 11 1008.3 1008.2 0.2
25/09:30pm 29.0 32.2 23.7 73 3.7 NE 13 17 7 9 1008.5 1008.4 0.2
25/09:00pm 29.0 32.7 23.9 74 3.5 NE 11 17 6 9 1008.7 1008.6 0.2
25/08:30pm 28.9 33.0 24.0 75 3.4 NNE 9 13 5 7 1008.7 1008.6 0.2
25/08:00pm 28.8 32.8 23.7 74 3.5 NNE 9 11 5 6 1008.2 1008.1 0.2
25/07:30pm 29.1 32.6 23.5 72 3.9 N 11 15 6 8 1007.7 1007.6 0.2
25/07:00pm 29.1 31.6 23.8 73 3.7 NNE 17 20 9 11 1006.6 1006.5 0.2
25/06:30pm 29.4 32.2 23.6 71 4.0 NNE 15 19 8 10 1006.7 1006.6 0.2
25/06:00pm 29.9 32.7 23.6 69 4.4 NNE 15 19 8 10 1006.5 1006.4 0.2
25/05:30pm 30.2 32.1 23.4 67 4.7 NE 19 22 10 12 1006.5 1006.4 0.2
25/05:00pm 31.2 33.6 23.6 64 5.3 NE 17 22 9 12 1006.6 1006.5 0.2
25/04:30pm 32.1 36.0 24.2 63 5.5 NNE 11 17 6 9 1007.1 1007.0 0.2
25/04:00pm 29.9 34.2 24.3 72 3.9 N 9 11 5 6 1007.1 1007.0 0.2
25/03:30pm 30.1 34.4 24.3 71 4.0 N 9 15 5 8 1007.2 1007.1 0.2
25/03:00pm 29.8 34.1 23.7 70 4.2 NW 7 11 4 6 1007.5 1007.4 0.2
25/02:30pm 29.6 32.9 23.8 71 4.0 WNW 13 19 7 10 1007.8 1007.7 0.0
25/02:00pm 27.9 30.4 23.1 75 3.3 WNW 15 19 8 10 1008.7 1008.6 0.0
25/01:30pm 30.2 33.1 23.1 65 4.9 NNW 13 20 7 11 1008.7 1008.6 0.0
25/01:00pm 30.2 33.0 25.3 75 3.5 NE 20 28 11 15 1009.1 1009.0 0.0
25/12:47pm 28.4 28.4 23.1 73 3.6 E 28 37 15 20 1008.9 1008.8 0.0
25/12:30pm 32.3 36.9 24.1 62 5.7 WSW 7 13 4 7 1009.0 1008.9 0.0
25/12:00pm 32.0 36.2 24.1 63 5.5 NE 9 13 5 7 1009.1 1009.0 0.0
25/11:30am 32.2 36.1 24.3 63 5.5 ENE 11 15 6 8 1009.5 1009.4 0.0
25/11:00am 31.6 35.2 23.7 63 5.5 ESE 11 15 6 8 1009.6 1009.5 0.0
25/10:30am 31.4 34.7 23.8 64 5.3 ESE 13 17 7 9 1009.7 1009.6 0.0
25/10:00am 29.7 33.5 23.4 69 4.3 SE 9 13 5 7 1009.5 1009.4 0.0
25/09:30am 29.2 32.5 23.2 70 4.1 ESE 11 15 6 8 1009.8 1009.7 0.0
25/09:00am 29.2 33.1 23.6 72 3.9 SE 9 13 5 7 1010.1 1010.0 1.6
25/08:30am 28.8 32.4 23.0 71 4.0 SSE 9 13 5 7 1010.1 1010.0 1.4
25/08:00am 28.4 31.8 23.3 74 3.5 S 11 13 6 7 1009.8 1009.7 1.4
25/07:30am 27.9 31.7 23.5 77 3.0 S 9 13 5 7 1009.9 1009.8 1.4
25/07:00am 28.4 31.4 23.3 74 3.5 SSW 13 17 7 9 1009.5 1009.4 1.4
25/06:30am 28.6 30.6 22.3 68 4.3 ESE 15 19 8 10 1008.7 1008.6 1.4
25/06:00am 26.9 30.1 21.6 72 3.5 NNW 7 9 4 5 1008.0 1007.9 1.4
25/05:30am 26.4 29.4 22.0 77 3.0 WNW 9 13 5 7 1007.7 1007.6 1.4
25/05:00am 27.0 29.4 20.8 69 4.1 NW 9 9 5 5 1007.4 1007.3 1.4
25/04:30am 28.0 30.2 21.1 66 4.6 SSE 11 15 6 8 1007.2 1007.1 1.4
25/04:00am 27.8 28.7 21.6 69 4.1 SSE 19 26 10 14 1007.0 1006.9 1.4
25/03:30am 26.4 29.5 21.4 74 3.3 SSW 7 11 4 6 1006.3 1006.2 1.4
25/03:00am 26.0 28.0 20.8 73 3.4 ESE 11 17 6 9 1006.4 1006.3 1.4
25/02:30am 24.8 28.6 22.7 88 1.4 N 7 13 4 7 1007.3 1007.2 1.2
25/02:16am 24.5 26.3 21.8 85 1.8 NE 15 17 8 9 1007.9 1007.8 0.8
25/02:00am 25.2 20.8 21.3 79 2.6 E 46 61 25 33 1009.0 1008.9 0.0
25/01:54am 24.8 18.9 20.5 77 2.8 E 52 61 28 33 1009.4 1009.3 0.0
25/01:30am 26.1 18.7 23.8 87 1.6 ESE 69 82 37 44 1009.2 1009.1 0.0
25/01:10am 26.8 19.8 21.8 74 3.3 SE 61 80 33 43 1009.1 1009.0 0.0
25/01:06am 28.3 22.0 21.3 65 4.7 SE 56 69 30 37 1009.3 1009.2 0.0
25/01:05am 29.0 28.1 22.2 66 4.6 SE 30 69 16 37 1009.5 1009.4 0.0
25/01:00am 29.6 32.9 24.5 74 3.6 E 15 19 8 10 1009.2 1009.1 0.0
25/12:30am 29.7 32.5 24.3 73 3.8 NNE 17 20 9 11 1009.0 1008.9 0.0
25/12:00am 29.7 32.6 23.9 71 4.0 NE 15 20 8 11 1009.8 1009.7 0.0
 
Date/Time
CST
Temp
°C
App
Temp
°C
Dew
Point
Rel
Hum
%
Delta-T
°C
Wind Press
QNH
hPa
Press
MSL
hPa
Rain
since 9 am
mm
Dir
 
Spd
km/h
Gust
km/h
Spd
kts
Gust
kts
24/11:30pm 29.7 32.5 23.6 69 4.2 NE 15 20 8 11 1009.9 1009.8 0.0
24/11:00pm 29.8 32.5 23.5 69 4.3 NNE 15 20 8 11 1009.9 1009.8 0.0
24/10:30pm 29.9 33.0 24.1 71 4.0 NNE 15 19 8 10 1010.1 1010.0 0.0
24/10:00pm 29.8 32.6 23.7 70 4.2 NNE 15 20 8 11 1010.2 1010.1 0.0
24/09:30pm 29.8 32.6 23.7 70 4.2 NE 15 19 8 10 1009.8 1009.7 0.0
24/09:00pm 29.8 33.4 23.7 70 4.2 NE 11 15 6 8 1009.4 1009.3 0.0
24/08:30pm 29.9 33.7 24.1 71 4.0 NNE 11 15 6 8 1008.6 1008.5 0.0
24/08:00pm 29.9 34.3 23.8 70 4.2 NNE 7 13 4 7 1008.5 1008.4 0.0
24/07:30pm 29.9 33.5 23.8 70 4.2 N 11 19 6 10 1008.4 1008.3 0.0
24/07:00pm 30.1 32.4 23.5 67 4.6 NNE 17 24 9 13 1007.8 1007.7 0.0
24/06:30pm 30.0 32.0 23.9 70 4.2 NNE 20 26 11 14 1007.5 1007.4 0.0
24/06:00pm 30.3 32.2 24.4 70 4.1 NNE 22 28 12 15 1007.2 1007.1 0.0
24/05:30pm 30.6 31.7 24.3 69 4.4 NNE 26 35 14 19 1006.4 1006.3 0.0
24/05:00pm 31.9 33.7 24.2 63 5.4 N 22 32 12 17 1006.2 1006.1 0.0
24/04:30pm 32.3 33.9 23.3 59 6.2 N 20 30 11 16 1006.2 1006.1 0.0
24/04:00pm 33.6 35.2 23.3 55 7.1 N 20 24 11 13 1006.8 1006.7 0.0
24/03:30pm 34.4 36.0 22.8 51 8.0 NNE 19 24 10 13 1007.0 1006.9 0.0
24/03:00pm 35.0 36.9 22.0 46 8.9 N 15 20 8 11 1007.4 1007.3 0.0
24/02:30pm 34.6 36.4 22.6 49 8.3 NNE 17 24 9 13 1007.6 1007.5 0.0
24/02:00pm 35.4 36.3 20.9 42 9.8 NNE 17 24 9 13 1007.8 1007.7 0.0
24/01:30pm 35.1 35.7 21.0 43 9.5 NNE 19 26 10 14 1008.3 1008.2 0.0
24/01:00pm 35.6 36.4 19.9 39 10.5 N 15 24 8 13 1008.9 1008.8 0.0
24/12:30pm 35.8 35.4 18.8 36 11.2 N 19 26 10 14 1009.0 1008.9 0.0
24/12:00pm 35.4 36.3 20.9 42 9.8 NNW 17 24 9 13 1009.5 1009.4 0.0
24/11:30am 35.2 37.3 22.5 47 8.8 N 15 20 8 11 1010.4 1010.3 0.0
24/11:00am 34.6 36.4 23.6 52 7.7 N 20 30 11 16 1011.1 1011.0 0.0
24/10:30am 34.0 36.2 24.0 56 7.0 NNE 19 26 10 14 1011.6 1011.5 0.0
24/10:00am 32.0 34.7 24.1 63 5.5 N 17 24 9 13 1011.7 1011.6 0.0
24/09:30am 31.6 33.5 23.4 61 5.7 N 19 24 10 13 1011.5 1011.4 0.0
24/09:00am 32.6 34.9 24.4 62 5.8 N 20 26 11 14 1011.5 1011.4 0.0
24/08:30am 31.9 34.2 23.4 60 5.9 N 17 24 9 13 1011.4 1011.3 0.0
24/08:00am 31.4 34.2 24.3 66 5.0 N 17 26 9 14 1011.0 1010.9 0.0
24/07:30am 30.8 33.8 24.7 70 4.3 NNW 17 22 9 12 1010.4 1010.3 0.0
24/07:00am 30.1 33.5 24.7 73 3.8 NNW 15 24 8 13 1009.9 1009.8 0.0
24/06:30am 28.7 32.9 24.7 79 2.8 NW 11 13 6 7 1009.1 1009.0 0.0
24/06:00am 27.9 31.5 24.3 81 2.5 NW 13 17 7 9 1008.3 1008.2 0.0
24/05:30am 27.8 31.8 24.4 82 2.4 NNW 11 15 6 8 1008.0 1007.9 0.0
24/05:00am 27.9 32.0 24.5 82 2.4 NW 11 13 6 7 1007.9 1007.8 0.0
24/04:30am 28.3 32.9 24.7 81 2.5 NNW 9 13 5 7 1007.9 1007.8 0.0
24/04:00am 28.3 32.4 24.5 80 2.6 NNW 11 15 6 8 1007.9 1007.8 0.0
24/03:30am 28.5 32.7 24.7 80 2.7 N 11 15 6 8 1007.9 1007.8 0.0
24/03:00am 28.6 32.6 25.0 81 2.5 N 13 20 7 11 1007.9 1007.8 0.0
24/02:30am 28.7 32.5 24.7 79 2.8 N 13 17 7 9 1008.0 1007.9 0.0
24/02:00am 29.0 32.9 24.8 78 2.9 N 13 17 7 9 1008.4 1008.3 0.0
24/01:30am 29.1 33.1 25.1 79 2.8 NNE 13 17 7 9 1008.8 1008.7 0.0
24/01:00am 29.1 32.6 24.9 78 2.9 NNE 15 20 8 11 1008.5 1008.4 0.0
24/12:30am 29.3 32.8 24.8 77 3.2 NE 15 19 8 10 1009.3 1009.2 0.0
24/12:00am 29.3 32.2 24.4 75 3.4 N 17 24 9 13 1009.4 1009.3 0.0
 
Date/Time
CST
Temp
°C
App
Temp
°C
Dew
Point
Rel
Hum
%
Delta-T
°C
Wind Press
QNH
hPa
Press
MSL
hPa
Rain
since 9 am
mm
Dir
 
Spd
km/h
Gust
km/h
Spd
kts
Gust
kts
23/11:30pm 29.5 32.1 23.9 72 3.9 N 17 22 9 12 1009.4 1009.3 0.0
23/11:00pm 29.8 31.9 23.7 70 4.2 N 19 26 10 14 1009.5 1009.4 0.0
23/10:30pm 30.1 32.0 23.8 69 4.4 N 20 26 11 14 1009.9 1009.8 0.0
23/10:00pm 30.1 32.1 24.0 70 4.2 NNE 20 28 11 15 1010.1 1010.0 0.0

Other Formats:

Comma delimited format used in spreadsheet applications
http://www.bom.gov.au/fwo/IDD60801/IDD60801.94248.axf

JavaScript Object Notation format (JSON) in row-major order
http://www.bom.gov.au/fwo/IDD60801/IDD60801.94248.json